createdAt,value
2022-08-17T00:00:11.974Z,67.26
2022-08-17T00:03:02.750Z,67.42
2022-08-17T00:05:36.851Z,68.31
2022-08-17T00:08:05.281Z,70.36
2022-08-17T00:10:33.180Z,70.61
2022-08-17T00:13:01.123Z,73.13
2022-08-17T00:15:28.935Z,71.88
2022-08-17T00:17:56.705Z,72.79
2022-08-17T00:20:33.459Z,74.41
2022-08-17T00:23:06.948Z,74.63
2022-08-17T00:25:35.648Z,75.34
2022-08-17T00:28:03.730Z,76.02
2022-08-17T00:30:48.457Z,75.70
2022-08-17T00:33:22.563Z,73.58
2022-08-17T00:35:51.392Z,75.90
2022-08-17T00:38:20.962Z,80.08
2022-08-17T00:40:51.825Z,80.67
2022-08-17T00:43:29.743Z,80.54
2022-08-17T00:45:58.730Z,80.37
2022-08-17T00:48:30.083Z,79.73
2022-08-17T00:51:03.948Z,80.93
2022-08-17T00:53:34.848Z,82.77
2022-08-17T00:56:06.032Z,82.72
2022-08-17T00:58:36.377Z,82.88
2022-08-17T01:01:06.177Z,83.10
2022-08-17T01:03:35.631Z,83.33
2022-08-17T01:06:06.563Z,83.70
2022-08-17T01:08:38.182Z,83.68
2022-08-17T01:11:06.415Z,84.93
2022-08-17T01:13:41.083Z,87.15
2022-08-17T01:16:15.921Z,87.78
2022-08-17T01:18:44.660Z,87.21
2022-08-17T01:21:19.410Z,87.02
2022-08-17T01:23:48.558Z,86.75
2022-08-17T01:26:17.318Z,87.02
2022-08-17T01:28:54.621Z,87.34
2022-08-17T01:31:25.052Z,88.75
2022-08-17T01:33:53.302Z,89.82
2022-08-17T01:36:21.279Z,89.91
2022-08-17T01:38:50.544Z,90.10
2022-08-17T01:41:19.906Z,90.02
2022-08-17T01:43:52.088Z,91.16
2022-08-17T01:46:23.529Z,90.30
2022-08-17T01:48:51.654Z,91.54
2022-08-17T01:51:20.239Z,91.53
2022-08-17T01:53:53.023Z,92.33
2022-08-17T01:56:24.028Z,92.36
2022-08-17T01:58:51.889Z,93.42
2022-08-17T02:01:22.615Z,94.20
2022-08-17T02:03:53.386Z,94.64
2022-08-17T02:06:29.402Z,94.06
2022-08-17T02:09:02.834Z,94.33
2022-08-17T02:11:34.245Z,93.89
2022-08-17T02:14:04.102Z,95.27
2022-08-17T02:16:36.705Z,95.11
2022-08-17T02:19:05.372Z,95.23
2022-08-17T02:21:34.019Z,95.95
2022-08-17T02:24:04.273Z,94.73
2022-08-17T02:26:32.070Z,94.77
2022-08-17T02:28:59.786Z,94.73
2022-08-17T02:31:27.687Z,94.79
2022-08-17T02:34:00.282Z,93.97
2022-08-17T02:36:33.913Z,93.70
2022-08-17T02:39:03.640Z,93.37
2022-08-17T02:41:31.545Z,92.29
2022-08-17T02:43:59.653Z,93.90
2022-08-17T02:46:28.395Z,93.90
2022-08-17T02:48:56.140Z,92.82
2022-08-17T02:51:24.141Z,92.10
2022-08-17T02:53:52.157Z,91.45
2022-08-17T02:56:21.219Z,91.83
2022-08-17T02:58:49.205Z,91.40
2022-08-17T03:01:17.381Z,91.59
2022-08-17T03:03:45.147Z,91.09
2022-08-17T03:06:12.883Z,91.02
2022-08-17T03:08:40.713Z,90.55
2022-08-17T03:11:08.443Z,90.77
2022-08-17T03:13:37.640Z,92.21
2022-08-17T03:16:05.675Z,91.40
2022-08-17T03:18:33.410Z,91.50
2022-08-17T03:21:04.298Z,92.15
2022-08-17T03:23:32.972Z,91.81
2022-08-17T03:26:01.023Z,92.67
2022-08-17T03:28:30.158Z,93.02
2022-08-17T03:30:59.326Z,92.73
2022-08-17T03:33:27.042Z,92.45
2022-08-17T03:35:54.796Z,92.89
2022-08-17T03:38:23.297Z,92.73
2022-08-17T03:40:57.338Z,93.40
2022-08-17T03:43:29.350Z,93.13
2022-08-17T03:46:27.775Z,92.59
2022-08-17T03:49:19.236Z,91.32
2022-08-17T03:52:04.499Z,93.45
2022-08-17T03:54:49.871Z,92.74
2022-08-17T03:57:18.488Z,93.30
2022-08-17T03:59:46.237Z,94.03
2022-08-17T04:02:19.897Z,93.33
2022-08-17T04:04:50.792Z,93.38
2022-08-17T04:07:19.533Z,92.77
2022-08-17T04:09:47.679Z,94.47
2022-08-17T04:12:16.768Z,93.90
2022-08-17T04:14:53.329Z,94.66
2022-08-17T04:17:24.226Z,94.50
2022-08-17T04:19:54.229Z,95.48
2022-08-17T04:22:33.264Z,95.24
2022-08-17T04:25:04.316Z,94.88
2022-08-17T04:27:32.117Z,94.06
2022-08-17T04:29:59.859Z,95.70
2022-08-17T04:33:04.182Z,95.64
2022-08-17T04:35:21.323Z,95.90
2022-08-17T04:37:49.501Z,96.26
2022-08-17T04:40:36.482Z,97.64
2022-08-17T04:43:07.212Z,97.11
2022-08-17T04:45:35.445Z,96.54
2022-08-17T04:48:04.250Z,96.86
2022-08-17T04:50:34.978Z,96.19
2022-08-17T04:53:02.983Z,96.67
2022-08-17T04:55:31.367Z,95.80
2022-08-17T04:57:59.164Z,96.03
2022-08-17T05:00:27.295Z,95.30
2022-08-17T05:02:56.549Z,95.44
2022-08-17T05:05:26.698Z,95.22
2022-08-17T05:07:57.742Z,94.30
2022-08-17T05:10:27.615Z,96.50
2022-08-17T05:13:00.219Z,97.82
2022-08-17T05:15:29.067Z,99.58
2022-08-17T05:18:01.400Z,98.92
2022-08-17T05:20:30.009Z,98.67
2022-08-17T05:23:04.498Z,97.98
2022-08-17T05:25:36.236Z,100.00
2022-08-17T05:28:06.614Z,99.92
2022-08-17T05:30:35.056Z,98.66
2022-08-17T05:33:06.284Z,97.69
2022-08-17T05:35:37.297Z,93.39
2022-08-17T05:38:07.985Z,92.06
2022-08-17T05:40:36.343Z,90.68
2022-08-17T05:43:09.970Z,89.96
2022-08-17T05:45:55.448Z,89.85
2022-08-17T05:48:39.429Z,88.62
2022-08-17T05:51:22.171Z,88.48
2022-08-17T05:54:05.411Z,87.65
2022-08-17T05:56:53.988Z,87.28
2022-08-17T05:59:36.632Z,85.96
2022-08-17T06:02:14.176Z,84.84
2022-08-17T06:04:56.828Z,84.02
2022-08-17T06:07:33.103Z,83.59
2022-08-17T06:10:11.782Z,81.94
2022-08-17T06:12:49.148Z,81.26
2022-08-17T06:15:29.327Z,81.69
2022-08-17T06:18:01.763Z,80.09
2022-08-17T06:20:34.080Z,79.76
2022-08-17T06:23:05.949Z,77.10
2022-08-17T06:25:40.669Z,77.81
2022-08-17T06:28:14.267Z,76.06
2022-08-17T06:30:59.496Z,75.59
2022-08-17T06:33:34.223Z,74.64
2022-08-17T06:36:11.356Z,74.99
2022-08-17T06:38:54.401Z,73.15
2022-08-17T06:41:31.462Z,72.19
2022-08-17T06:44:11.596Z,71.88
2022-08-17T06:47:04.719Z,72.82
2022-08-17T06:49:41.699Z,73.83
2022-08-17T06:52:45.249Z,75.50
2022-08-17T06:55:18.116Z,72.59
2022-08-17T06:57:51.979Z,73.92
2022-08-17T07:00:24.092Z,73.18
2022-08-17T07:02:56.735Z,73.15
2022-08-17T07:05:28.018Z,72.08
2022-08-17T07:08:05.092Z,72.37
2022-08-17T07:10:38.115Z,71.56
2022-08-17T07:13:29.334Z,71.82
2022-08-17T07:16:07.199Z,73.10
2022-08-17T07:18:35.060Z,72.67
2022-08-17T07:21:17.552Z,70.31
2022-08-17T07:24:01.665Z,68.71
2022-08-17T07:26:29.885Z,67.67
2022-08-17T07:29:01.967Z,67.96
2022-08-17T07:31:33.497Z,69.23
2022-08-17T07:34:07.962Z,65.59
2022-08-17T07:36:35.892Z,64.67
2022-08-17T07:39:05.333Z,66.62
2022-08-17T07:41:57.920Z,65.07
2022-08-17T07:44:29.042Z,64.93
2022-08-17T07:47:15.059Z,64.21
2022-08-17T07:49:45.987Z,64.06
2022-08-17T07:52:50.895Z,63.21
2022-08-17T07:55:29.398Z,62.20
2022-08-17T07:57:58.573Z,63.49
2022-08-17T08:00:32.395Z,62.48
2022-08-17T08:03:19.074Z,62.13
2022-08-17T08:05:53.135Z,63.31
2022-08-17T08:08:29.191Z,61.40
2022-08-17T08:11:03.830Z,62.40
2022-08-17T08:13:33.271Z,61.51
2022-08-17T08:16:32.275Z,61.12
2022-08-17T08:19:03.746Z,63.00
2022-08-17T08:21:41.967Z,62.50
2022-08-17T08:24:30.994Z,60.79
2022-08-17T08:27:12.865Z,63.05
2022-08-17T08:29:50.429Z,59.92
2022-08-17T08:32:38.988Z,58.49
2022-08-17T08:35:09.907Z,59.35
2022-08-17T08:37:48.091Z,59.03
2022-08-17T08:40:33.734Z,59.18
2022-08-17T08:43:17.825Z,59.65
2022-08-17T08:45:56.679Z,59.62
2022-08-17T08:48:57.825Z,57.66
2022-08-17T08:51:37.707Z,57.63
2022-08-17T08:54:17.106Z,58.60
2022-08-17T08:57:22.246Z,58.51
2022-08-17T09:00:07.288Z,59.92
2022-08-17T09:03:03.709Z,59.25
2022-08-17T09:05:45.159Z,58.78
2022-08-17T09:08:26.653Z,61.57
2022-08-17T09:11:04.554Z,60.32
2022-08-17T09:13:41.331Z,63.13
2022-08-17T09:16:15.805Z,59.14
2022-08-17T09:18:59.896Z,59.75
2022-08-17T09:21:45.784Z,59.03
2022-08-17T09:24:22.973Z,57.64
2022-08-17T09:26:58.862Z,60.70
2022-08-17T09:29:30.534Z,59.74
2022-08-17T09:32:01.629Z,58.73
2022-08-17T09:34:35.280Z,60.42
2022-08-17T09:37:16.819Z,60.75
2022-08-17T09:39:52.605Z,60.90
2022-08-17T09:42:27.910Z,60.88
2022-08-17T09:45:04.781Z,62.88
2022-08-17T09:47:42.916Z,64.10
2022-08-17T09:50:16.738Z,63.53
2022-08-17T09:52:45.824Z,61.99
2022-08-17T09:55:13.613Z,61.92
2022-08-17T09:58:00.111Z,61.75
2022-08-17T10:00:35.410Z,61.93
2022-08-17T10:03:28.244Z,62.72
2022-08-17T10:06:06.577Z,61.59
2022-08-17T10:08:42.679Z,62.50
2022-08-17T10:11:22.428Z,62.34
2022-08-17T10:14:37.760Z,62.38
2022-08-17T10:17:04.407Z,62.76
2022-08-17T10:19:38.916Z,62.60
2022-08-17T10:22:34.899Z,63.65
2022-08-17T10:25:42.642Z,64.74
2022-08-17T10:28:22.827Z,64.67
2022-08-17T10:31:16.587Z,63.63
2022-08-17T10:33:56.368Z,64.79
2022-08-17T10:36:30.154Z,64.14
2022-08-17T10:39:08.870Z,64.94
2022-08-17T10:41:44.118Z,65.27
2022-08-17T10:44:40.272Z,65.90
2022-08-17T10:47:11.820Z,65.71
2022-08-17T10:49:47.531Z,66.04
2022-08-17T10:52:48.679Z,66.54
2022-08-17T10:55:18.617Z,67.07
2022-08-17T10:57:50.676Z,66.99
2022-08-17T11:01:08.867Z,68.39
2022-08-17T11:03:36.749Z,67.61
2022-08-17T11:06:21.508Z,68.25
2022-08-17T11:09:31.440Z,69.25
2022-08-17T11:12:16.092Z,70.07
2022-08-17T11:15:01.377Z,70.02
2022-08-17T11:17:49.691Z,70.35
2022-08-17T11:20:54.722Z,70.13
2022-08-17T11:23:40.685Z,70.46
2022-08-17T11:26:25.855Z,70.59
2022-08-17T11:28:59.577Z,71.33
2022-08-17T11:31:38.940Z,71.85
2022-08-17T11:34:15.281Z,71.64
2022-08-17T11:37:02.555Z,72.59
2022-08-17T11:40:04.936Z,72.48
2022-08-17T11:42:56.649Z,72.81
2022-08-17T11:45:54.292Z,73.70
2022-08-17T11:48:50.170Z,74.29
2022-08-17T11:51:42.431Z,74.59
2022-08-17T11:54:33.789Z,74.51
2022-08-17T11:57:40.893Z,74.20
2022-08-17T12:00:11.623Z,74.75
2022-08-17T12:02:47.346Z,74.85
2022-08-17T12:05:33.932Z,73.59
2022-08-17T12:08:11.877Z,73.72
2022-08-17T12:10:52.808Z,73.68
2022-08-17T12:13:21.850Z,73.82
2022-08-17T12:15:53.103Z,72.99
2022-08-17T12:18:24.499Z,74.26
2022-08-17T12:21:17.653Z,74.33
2022-08-17T12:23:56.647Z,73.58
2022-08-17T12:26:27.853Z,73.51
2022-08-17T12:28:59.993Z,74.05
2022-08-17T12:31:32.427Z,72.26
2022-08-17T12:34:00.580Z,71.60
2022-08-17T12:36:30.473Z,73.00
2022-08-17T12:39:14.011Z,71.60
2022-08-17T12:41:46.918Z,71.99
2022-08-17T12:44:17.443Z,70.52
2022-08-17T12:46:55.880Z,70.18
2022-08-17T12:49:27.971Z,70.02
2022-08-17T12:52:09.503Z,69.44
2022-08-17T12:54:47.767Z,68.93
2022-08-17T12:57:19.919Z,69.03
2022-08-17T12:59:52.877Z,69.93
2022-08-17T13:02:31.655Z,70.22
2022-08-17T13:05:02.483Z,69.45
2022-08-17T13:07:35.536Z,67.45
2022-08-17T13:10:04.295Z,65.23
2022-08-17T13:12:34.485Z,66.12
2022-08-17T13:15:02.978Z,65.76
2022-08-17T13:17:35.768Z,63.74
2022-08-17T13:20:06.693Z,63.31
2022-08-17T13:22:36.051Z,60.98
2022-08-17T13:25:08.490Z,62.35
2022-08-17T13:27:36.542Z,58.65
2022-08-17T13:30:11.614Z,58.97
2022-08-17T13:32:44.107Z,60.07
2022-08-17T13:35:44.265Z,62.21
2022-08-17T13:38:40.477Z,59.20
2022-08-17T13:41:08.886Z,58.54
2022-08-17T13:43:49.542Z,59.08
2022-08-17T13:46:22.794Z,58.24
2022-08-17T13:48:59.666Z,56.46
2022-08-17T13:51:31.095Z,57.16
2022-08-17T13:54:19.958Z,61.26
2022-08-17T13:56:55.523Z,63.95
2022-08-17T13:59:36.353Z,58.21
2022-08-17T14:02:20.512Z,59.32
2022-08-17T14:04:49.525Z,57.42
2022-08-17T14:07:34.307Z,58.74
2022-08-17T14:10:07.811Z,56.68
2022-08-17T14:12:38.471Z,56.80
2022-08-17T14:15:06.925Z,59.88
2022-08-17T14:17:38.634Z,56.77
2022-08-17T14:20:09.478Z,58.54
2022-08-17T14:22:39.841Z,57.27
2022-08-17T14:25:10.482Z,56.33
2022-08-17T14:27:51.730Z,55.92
2022-08-17T14:30:22.044Z,56.15
2022-08-17T14:32:51.784Z,57.01
2022-08-17T14:35:22.197Z,55.97
2022-08-17T14:37:50.211Z,57.08
2022-08-17T14:40:24.455Z,56.87
2022-08-17T14:42:54.408Z,57.66
2022-08-17T14:45:29.592Z,58.38
2022-08-17T14:48:02.784Z,59.49
2022-08-17T14:50:31.815Z,60.35
2022-08-17T14:53:01.598Z,59.80
2022-08-17T14:55:32.523Z,59.92
2022-08-17T14:58:00.430Z,59.04
2022-08-17T15:00:28.575Z,60.02
2022-08-17T15:02:58.744Z,57.32
2022-08-17T15:05:31.448Z,58.73
2022-08-17T15:07:59.596Z,59.36
2022-08-17T15:10:27.870Z,60.11
2022-08-17T15:12:57.646Z,61.83
2022-08-17T15:15:26.386Z,61.55
2022-08-17T15:17:54.151Z,60.68
2022-08-17T15:20:27.627Z,60.33
2022-08-17T15:22:57.162Z,60.16
2022-08-17T15:25:25.970Z,60.25
2022-08-17T15:27:54.044Z,60.14
2022-08-17T15:30:23.258Z,59.12
2022-08-17T15:32:54.912Z,60.46
2022-08-17T15:35:28.324Z,59.61
2022-08-17T15:37:58.163Z,61.37
2022-08-17T15:40:26.212Z,60.70
2022-08-17T15:42:54.067Z,60.46
2022-08-17T15:45:28.257Z,61.21
2022-08-17T15:47:56.031Z,61.99
2022-08-17T15:50:23.902Z,63.07
2022-08-17T15:52:56.803Z,62.60
2022-08-17T15:55:24.991Z,62.96
2022-08-17T15:57:53.272Z,63.51
2022-08-17T16:00:24.090Z,63.51
2022-08-17T16:03:13.615Z,65.59
2022-08-17T16:05:40.707Z,67.65
2022-08-17T16:08:08.882Z,65.88
2022-08-17T16:10:37.188Z,68.17
2022-08-17T16:13:05.858Z,69.83
2022-08-17T16:15:56.852Z,68.05
2022-08-17T16:18:26.638Z,67.28
2022-08-17T16:20:54.978Z,67.20
2022-08-17T16:23:22.900Z,68.17
2022-08-17T16:25:53.497Z,68.89
2022-08-17T16:28:35.730Z,68.25
2022-08-17T16:31:08.230Z,67.80
2022-08-17T16:33:37.615Z,68.94
2022-08-17T16:36:07.190Z,69.47
2022-08-17T16:38:35.757Z,68.81
2022-08-17T16:41:04.952Z,69.11
2022-08-17T16:43:33.135Z,68.88
2022-08-17T16:46:01.738Z,70.25
2022-08-17T16:48:31.430Z,70.32
2022-08-17T16:51:03.120Z,69.15
2022-08-17T16:53:32.240Z,68.87
2022-08-17T16:56:00.109Z,68.69
2022-08-17T16:58:29.073Z,68.50
2022-08-17T17:00:59.301Z,68.03
2022-08-17T17:03:31.853Z,68.67
2022-08-17T17:06:08.150Z,68.41
2022-08-17T17:08:43.729Z,68.68
2022-08-17T17:11:15.518Z,68.23
2022-08-17T17:13:48.007Z,68.64
2022-08-17T17:16:21.578Z,69.12
2022-08-17T17:19:09.115Z,69.04
2022-08-17T17:21:44.557Z,68.50
2022-08-17T17:24:17.622Z,67.84
2022-08-17T17:27:01.401Z,68.08
2022-08-17T17:29:47.821Z,69.06
2022-08-17T17:32:22.650Z,68.81
2022-08-17T17:34:58.881Z,69.12
2022-08-17T17:37:33.347Z,69.63
2022-08-17T17:40:05.812Z,70.03
2022-08-17T17:42:34.090Z,70.57
2022-08-17T17:45:07.891Z,70.79
2022-08-17T17:47:36.258Z,70.23
2022-08-17T17:50:07.196Z,70.70
2022-08-17T17:52:42.389Z,70.21
2022-08-17T17:55:25.918Z,71.07
2022-08-17T17:58:03.686Z,71.34
2022-08-17T18:00:39.500Z,71.96
2022-08-17T18:03:19.852Z,72.53
2022-08-17T18:06:10.402Z,72.92
2022-08-17T18:08:50.227Z,74.00
2022-08-17T18:11:44.356Z,73.95
2022-08-17T18:14:28.021Z,74.13
2022-08-17T18:16:57.888Z,74.06
2022-08-17T18:19:28.415Z,74.23
2022-08-17T18:22:15.031Z,74.68
2022-08-17T18:24:45.093Z,75.29
2022-08-17T18:27:23.231Z,76.31
2022-08-17T18:29:53.255Z,76.45
2022-08-17T18:32:36.348Z,76.43
2022-08-17T18:35:39.323Z,77.17
2022-08-17T18:38:22.394Z,78.39
2022-08-17T18:41:00.815Z,78.70
2022-08-17T18:43:43.757Z,79.40
2022-08-17T18:46:29.675Z,79.48
2022-08-17T18:49:00.488Z,80.05
2022-08-17T18:51:40.804Z,80.89
2022-08-17T18:54:23.188Z,81.41
2022-08-17T18:56:54.587Z,81.96
2022-08-17T18:59:33.563Z,82.21
2022-08-17T19:02:27.331Z,83.04
2022-08-17T19:05:10.525Z,83.39
2022-08-17T19:07:42.253Z,84.28
2022-08-17T19:10:24.163Z,84.05
2022-08-17T19:13:00.461Z,85.02
2022-08-17T19:15:33.982Z,85.76
2022-08-17T19:18:06.768Z,86.11
2022-08-17T19:20:39.527Z,86.36
2022-08-17T19:23:17.773Z,86.93
2022-08-17T19:25:50.481Z,88.15
2022-08-17T19:28:25.674Z,88.43
2022-08-17T19:30:59.407Z,89.75
2022-08-17T19:33:27.773Z,89.68
2022-08-17T19:36:04.157Z,90.59
2022-08-17T19:38:45.708Z,90.86
2022-08-17T19:41:21.722Z,92.77
2022-08-17T19:43:59.038Z,93.87
2022-08-17T19:46:36.677Z,94.05
2022-08-17T19:49:16.961Z,94.37
2022-08-17T19:51:50.554Z,96.07
2022-08-17T19:54:25.465Z,96.63
2022-08-17T19:57:03.204Z,96.67
2022-08-17T19:59:48.846Z,97.27
2022-08-17T20:02:35.755Z,97.97
2022-08-17T20:05:09.476Z,98.97
2022-08-17T20:07:45.425Z,98.01
2022-08-17T20:10:20.202Z,98.70
2022-08-17T20:12:53.360Z,100.00
2022-08-17T20:15:28.311Z,100.00
2022-08-17T20:17:59.905Z,100.00
2022-08-17T20:20:36.039Z,100.00
2022-08-17T20:23:12.311Z,100.00
2022-08-17T20:25:47.342Z,100.00
2022-08-17T20:28:24.308Z,100.00
2022-08-17T20:30:53.486Z,100.00
2022-08-17T20:33:27.307Z,100.00
2022-08-17T20:36:05.966Z,100.00
2022-08-17T20:38:42.427Z,100.00
2022-08-17T20:41:16.082Z,100.00
2022-08-17T20:43:52.273Z,100.00
2022-08-17T20:46:32.850Z,100.00
2022-08-17T20:49:16.461Z,100.00
2022-08-17T20:52:01.538Z,100.00
2022-08-17T20:54:46.889Z,100.00
2022-08-17T20:57:47.286Z,100.00
2022-08-17T21:00:43.116Z,100.00
2022-08-17T21:03:51.261Z,100.00
2022-08-17T21:06:23.398Z,100.00
2022-08-17T21:09:09.935Z,100.00
2022-08-17T21:12:04.601Z,100.00
2022-08-17T21:15:02.204Z,100.00
2022-08-17T21:17:44.597Z,100.00
2022-08-17T21:20:28.139Z,100.00
2022-08-17T21:23:18.464Z,100.00
2022-08-17T21:26:29.667Z,100.00
2022-08-17T21:29:32.339Z,100.00
2022-08-17T21:32:23.696Z,100.00
2022-08-17T21:35:26.709Z,100.00
2022-08-17T21:38:00.637Z,100.00
2022-08-17T21:40:31.117Z,100.00
2022-08-17T21:43:04.871Z,100.00
2022-08-17T21:45:36.401Z,100.00
2022-08-17T21:48:11.118Z,100.00
2022-08-17T21:50:40.581Z,100.00
2022-08-17T21:53:14.443Z,100.00
2022-08-17T21:55:42.262Z,100.00
2022-08-17T21:58:29.181Z,100.00
2022-08-17T22:01:20.851Z,100.00
2022-08-17T22:03:59.767Z,100.00
2022-08-17T22:06:30.828Z,100.00
2022-08-17T22:09:03.491Z,100.00
2022-08-17T22:11:31.574Z,100.00
2022-08-17T22:14:05.306Z,100.00
2022-08-17T22:16:33.822Z,100.00
2022-08-17T22:19:01.860Z,100.00
2022-08-17T22:21:29.632Z,100.00
2022-08-17T22:24:04.888Z,100.00
2022-08-17T22:26:59.687Z,100.00
2022-08-17T22:29:57.617Z,100.00
2022-08-17T22:32:35.468Z,100.00
2022-08-17T22:35:31.410Z,100.00
2022-08-17T22:38:29.596Z,100.00
2022-08-17T22:41:17.918Z,100.00
2022-08-17T22:43:45.843Z,100.00
2022-08-17T22:46:14.980Z,100.00
2022-08-17T22:48:48.692Z,100.00
2022-08-17T22:51:21.321Z,100.00
2022-08-17T22:54:09.253Z,100.00
2022-08-17T22:56:55.893Z,100.00
2022-08-17T22:59:51.558Z,100.00
2022-08-17T23:02:23.519Z,100.00
2022-08-17T23:04:54.075Z,100.00
2022-08-17T23:07:24.241Z,100.00
2022-08-17T23:09:54.630Z,100.00
2022-08-17T23:12:27.506Z,100.00
2022-08-17T23:15:01.556Z,100.00
2022-08-17T23:17:32.876Z,100.00
2022-08-17T23:20:05.513Z,100.00
2022-08-17T23:22:34.107Z,100.00
2022-08-17T23:25:02.551Z,100.00
2022-08-17T23:27:32.084Z,100.00
2022-08-17T23:29:59.759Z,100.00
2022-08-17T23:32:28.132Z,100.00
2022-08-17T23:34:56.587Z,100.00
2022-08-17T23:37:27.131Z,100.00
2022-08-17T23:39:54.921Z,100.00
2022-08-17T23:42:22.710Z,100.00
2022-08-17T23:44:51.849Z,100.00
2022-08-17T23:47:19.655Z,100.00
2022-08-17T23:49:47.418Z,100.00
2022-08-17T23:52:16.648Z,100.00
2022-08-17T23:54:46.586Z,100.00
2022-08-17T23:57:16.560Z,100.00
2022-08-17T23:59:44.815Z,100.00
